createdAt,value
2018-01-24T00:00:18.290Z,99600.23
2018-01-24T00:01:58.984Z,99658.41
2018-01-24T00:03:38.971Z,99548.70
2018-01-24T00:05:19.176Z,99565.40
2018-01-24T00:06:59.084Z,99570.71
2018-01-24T00:08:40.346Z,99624.53
2018-01-24T00:10:21.535Z,99657.16
2018-01-24T00:12:07.420Z,99654.95
2018-01-24T00:13:47.780Z,99606.00
2018-01-24T00:15:31.443Z,99528.43
2018-01-24T00:17:12.395Z,99572.92
2018-01-24T00:18:52.501Z,99524.91
2018-01-24T00:20:33.819Z,99586.62
2018-01-24T00:22:16.939Z,99647.02
2018-01-24T00:23:54.499Z,99689.33
2018-01-24T00:25:33.391Z,99714.92
2018-01-24T00:27:12.909Z,99709.64
2018-01-24T00:28:51.951Z,99780.27
2018-01-24T00:30:31.718Z,99626.30
2018-01-24T00:32:12.171Z,99717.14
2018-01-24T00:33:56.938Z,99806.31
2018-01-24T00:35:39.443Z,99820.00
2018-01-24T00:37:20.741Z,99872.47
2018-01-24T00:39:00.273Z,99862.73
2018-01-24T00:40:38.635Z,99853.94
2018-01-24T00:42:18.953Z,99836.27
2018-01-24T00:43:58.453Z,99800.53
2018-01-24T00:45:38.575Z,99797.47
2018-01-24T00:47:17.298Z,99727.80
2018-01-24T00:48:57.243Z,99719.36
2018-01-24T00:50:36.579Z,99725.57
2018-01-24T00:52:15.754Z,99643.06
2018-01-24T00:53:56.762Z,99662.52
2018-01-24T00:55:35.732Z,99689.77
2018-01-24T00:57:14.558Z,99774.53
2018-01-24T00:58:53.125Z,99836.27
2018-01-24T01:00:35.210Z,99855.27
2018-01-24T01:02:14.224Z,99846.02
2018-01-24T01:03:53.606Z,99838.51
2018-01-24T01:05:31.308Z,99809.86
2018-01-24T01:07:12.048Z,99725.57
2018-01-24T01:08:54.424Z,99781.19
2018-01-24T01:10:36.089Z,99847.81
2018-01-24T01:12:22.648Z,99865.01
2018-01-24T01:14:04.383Z,99793.53
2018-01-24T01:15:44.845Z,99838.48
2018-01-24T01:17:22.648Z,99860.20
2018-01-24T01:19:01.487Z,99833.68
2018-01-24T01:20:39.619Z,99834.13
2018-01-24T01:22:16.810Z,99768.82
2018-01-24T01:23:54.387Z,99736.66
2018-01-24T01:25:32.107Z,99757.83
2018-01-24T01:27:11.504Z,99761.81
2018-01-24T01:28:54.836Z,99700.39
2018-01-24T01:30:34.442Z,99704.84
2018-01-24T01:32:14.808Z,99724.70
2018-01-24T01:33:53.287Z,99739.31
2018-01-24T01:35:30.526Z,99724.28
2018-01-24T01:37:08.760Z,99739.34
2018-01-24T01:38:46.454Z,99759.58
2018-01-24T01:40:24.779Z,99781.19
2018-01-24T01:42:02.469Z,99829.77
2018-01-24T01:43:40.876Z,99847.38
2018-01-24T01:47:04.352Z,99814.30
2018-01-24T01:48:42.348Z,99794.87
2018-01-24T01:50:20.169Z,99802.84
2018-01-24T01:51:58.662Z,99859.35
2018-01-24T01:53:41.115Z,99896.37
2018-01-24T01:55:18.003Z,99905.70
2018-01-24T01:56:58.300Z,99899.94
2018-01-24T01:58:37.288Z,99920.30
2018-01-24T02:00:17.349Z,99965.27
2018-01-24T02:01:54.919Z,100012.17
2018-01-24T02:03:32.574Z,100038.69
2018-01-24T02:05:12.408Z,100006.38
2018-01-24T02:06:50.090Z,99980.78
2018-01-24T02:08:30.620Z,99974.59
2018-01-24T02:10:07.970Z,100002.87
2018-01-24T02:11:45.626Z,100011.27
2018-01-24T02:13:25.218Z,100013.48
2018-01-24T02:15:02.527Z,100036.94
2018-01-24T02:16:40.317Z,100030.28
2018-01-24T02:18:18.373Z,99996.67
2018-01-24T02:19:56.747Z,100002.46
2018-01-24T02:21:35.641Z,100061.64
2018-01-24T02:23:13.530Z,100128.37
2018-01-24T02:24:50.978Z,100020.09
2018-01-24T02:26:28.849Z,99975.94
2018-01-24T02:28:05.919Z,99934.03
2018-01-24T02:29:44.594Z,100070.13
2018-01-24T02:31:22.110Z,100145.63
2018-01-24T02:32:59.179Z,100128.82
2018-01-24T02:34:35.809Z,100082.00
2018-01-24T02:36:13.124Z,100054.13
2018-01-24T02:37:50.586Z,100023.72
2018-01-24T02:39:28.211Z,99954.39
2018-01-24T02:41:05.264Z,99962.27
2018-01-24T02:42:42.154Z,99862.48
2018-01-24T02:44:19.145Z,99850.61
2018-01-24T02:45:55.851Z,99974.69
2018-01-24T02:47:32.971Z,100032.05
2018-01-24T02:49:11.081Z,100047.52
2018-01-24T02:50:47.523Z,100069.64
2018-01-24T02:52:24.593Z,100051.08
2018-01-24T02:54:02.511Z,100028.09
2018-01-24T02:55:40.696Z,99882.35
2018-01-24T02:57:17.227Z,99931.45
2018-01-24T02:58:53.857Z,99992.38
2018-01-24T03:00:31.461Z,100074.91
2018-01-24T03:02:08.473Z,100082.89
2018-01-24T03:03:45.060Z,99945.11
2018-01-24T03:05:21.454Z,99890.37
2018-01-24T03:06:58.645Z,99910.67
2018-01-24T03:08:36.385Z,100045.42
2018-01-24T03:10:12.808Z,100139.94
2018-01-24T03:11:50.456Z,100210.71
2018-01-24T03:13:27.797Z,100249.64
2018-01-24T03:15:05.502Z,100188.13
2018-01-24T03:16:42.526Z,100236.42
2018-01-24T03:18:19.744Z,100319.13
2018-01-24T03:19:57.482Z,100366.48
2018-01-24T03:21:34.841Z,100383.77
2018-01-24T03:23:11.283Z,100317.81
2018-01-24T03:24:48.134Z,100274.86
2018-01-24T03:26:25.332Z,100312.06
2018-01-24T03:28:03.814Z,100325.75
2018-01-24T03:29:40.844Z,100331.10
2018-01-24T03:31:18.097Z,100301.42
2018-01-24T03:32:55.263Z,100254.51
2018-01-24T03:34:32.848Z,100218.27
2018-01-24T03:36:10.011Z,100192.58
2018-01-24T03:37:47.712Z,100181.48
2018-01-24T03:39:24.447Z,100146.59
2018-01-24T03:41:02.364Z,100115.17
2018-01-24T03:42:39.313Z,100088.27
2018-01-24T03:44:16.483Z,100102.37
2018-01-24T03:45:56.086Z,100091.33
2018-01-24T03:47:32.493Z,100080.27
2018-01-24T03:49:09.432Z,100085.59
2018-01-24T03:50:45.908Z,100063.95
2018-01-24T03:52:22.770Z,100064.39
2018-01-24T03:53:59.818Z,100077.67
2018-01-24T03:55:36.594Z,100052.91
2018-01-24T03:57:13.463Z,100021.06
2018-01-24T03:58:50.691Z,100019.77
2018-01-24T04:00:28.982Z,99996.78
2018-01-24T04:02:05.969Z,99995.95
2018-01-24T04:03:42.380Z,99984.86
2018-01-24T04:05:19.903Z,99986.20
2018-01-24T04:06:57.609Z,99987.08
2018-01-24T04:08:34.527Z,99990.60
2018-01-24T04:10:11.849Z,99996.80
2018-01-24T04:11:48.184Z,100022.03
2018-01-24T04:13:25.759Z,100032.63
2018-01-24T04:15:02.673Z,100028.19
2018-01-24T04:16:39.916Z,100024.20
2018-01-24T04:18:17.492Z,99970.72
2018-01-24T04:19:54.041Z,99990.62
2018-01-24T04:21:31.094Z,99995.03
2018-01-24T04:23:07.392Z,100026.84
2018-01-24T04:24:44.272Z,100018.41
2018-01-24T04:26:21.245Z,100057.83
2018-01-24T04:27:58.637Z,100062.17
2018-01-24T04:29:35.500Z,100076.77
2018-01-24T04:31:12.469Z,100077.16
2018-01-24T04:32:49.647Z,100050.72
2018-01-24T04:34:26.962Z,100051.59
2018-01-24T04:36:03.264Z,100018.02
2018-01-24T04:37:41.035Z,100060.42
2018-01-24T04:39:17.324Z,100134.25
2018-01-24T04:40:55.517Z,100166.08
2018-01-24T04:42:32.338Z,100193.50
2018-01-24T04:44:08.590Z,100172.27
2018-01-24T04:45:45.736Z,100187.30
2018-01-24T04:47:22.655Z,100222.74
2018-01-24T04:48:59.564Z,100254.11
2018-01-24T04:50:36.554Z,100245.72
2018-01-24T04:52:13.673Z,100184.20
2018-01-24T04:53:51.168Z,100155.88
2018-01-24T04:55:28.107Z,100170.48
2018-01-24T04:57:05.047Z,100147.98
2018-01-24T04:58:42.266Z,100129.78
2018-01-24T05:00:20.619Z,100153.28
2018-01-24T05:01:57.026Z,100150.53
2018-01-24T05:03:33.379Z,100149.30
2018-01-24T05:05:09.995Z,100127.12
2018-01-24T05:06:47.277Z,100155.50
2018-01-24T05:08:23.861Z,100151.95
2018-01-24T05:10:00.949Z,100172.73
2018-01-24T05:11:38.894Z,100128.45
2018-01-24T05:13:15.558Z,100075.89
2018-01-24T05:14:52.751Z,100082.12
2018-01-24T05:16:30.475Z,100196.14
2018-01-24T05:18:07.086Z,100254.53
2018-01-24T05:19:44.221Z,100259.91
2018-01-24T05:21:21.316Z,100253.73
2018-01-24T05:22:59.230Z,100299.28
2018-01-24T05:24:37.516Z,100317.42
2018-01-24T05:26:14.409Z,100318.72
2018-01-24T05:27:52.208Z,100309.87
2018-01-24T05:29:29.299Z,100303.20
2018-01-24T05:31:06.711Z,100250.16
2018-01-24T05:32:42.934Z,100232.50
2018-01-24T05:34:19.729Z,100246.20
2018-01-24T05:35:56.844Z,100173.20
2018-01-24T05:37:33.586Z,100175.86
2018-01-24T05:39:11.133Z,100226.30
2018-01-24T05:40:47.515Z,100247.54
2018-01-24T05:42:24.367Z,100253.29
2018-01-24T05:44:01.141Z,100267.87
2018-01-24T05:45:38.545Z,100256.33
2018-01-24T05:47:15.660Z,100226.31
2018-01-24T05:48:53.041Z,100248.84
2018-01-24T05:50:30.489Z,100317.90
2018-01-24T05:52:08.295Z,100324.06
2018-01-24T05:53:44.747Z,100344.45
2018-01-24T05:55:21.695Z,100317.86
2018-01-24T05:56:59.146Z,100246.60
2018-01-24T05:58:36.012Z,100177.59
2018-01-24T06:00:12.906Z,100109.45
2018-01-24T06:01:52.389Z,100098.45
2018-01-24T06:05:13.317Z,100112.56
2018-01-24T06:06:51.416Z,100101.55
2018-01-24T06:08:28.162Z,100110.78
2018-01-24T06:10:05.400Z,100142.22
2018-01-24T06:11:42.508Z,100177.59
2018-01-24T06:13:19.546Z,100182.89
2018-01-24T06:14:57.516Z,100209.94
2018-01-24T06:16:35.237Z,100222.74
2018-01-24T06:18:13.013Z,100229.83
2018-01-24T06:19:50.402Z,100227.17
2018-01-24T06:21:27.630Z,100224.54
2018-01-24T06:23:04.587Z,100195.74
2018-01-24T06:24:41.092Z,100194.38
2018-01-24T06:26:18.033Z,100197.50
2018-01-24T06:27:54.894Z,100134.21
2018-01-24T06:29:31.361Z,100116.59
2018-01-24T06:31:08.723Z,100129.45
2018-01-24T06:32:45.478Z,100176.28
2018-01-24T06:34:22.470Z,100181.11
2018-01-24T06:35:59.565Z,100139.54
2018-01-24T06:37:36.006Z,100122.78
2018-01-24T06:39:13.043Z,100102.01
2018-01-24T06:40:49.529Z,100047.63
2018-01-24T06:42:28.196Z,100057.36
2018-01-24T06:44:05.950Z,100062.22
2018-01-24T06:45:42.726Z,100059.19
2018-01-24T06:47:19.725Z,100014.95
2018-01-24T06:48:57.032Z,99956.70
2018-01-24T06:50:34.906Z,100032.22
2018-01-24T06:52:13.125Z,100067.96
2018-01-24T06:53:50.624Z,100071.00
2018-01-24T06:55:28.165Z,100085.20
2018-01-24T06:57:06.934Z,100109.49
2018-01-24T06:58:43.812Z,100137.38
2018-01-24T07:00:20.233Z,100114.82
2018-01-24T07:01:58.065Z,100102.81
2018-01-24T07:03:35.054Z,100083.84
2018-01-24T07:05:12.065Z,100069.73
2018-01-24T07:06:48.596Z,100040.12
2018-01-24T07:08:25.187Z,100017.56
2018-01-24T07:10:02.105Z,100011.44
2018-01-24T07:11:39.837Z,99998.63
2018-01-24T07:14:58.266Z,99961.92
2018-01-24T07:16:35.257Z,99863.02
2018-01-24T07:18:13.570Z,99863.45
2018-01-24T07:19:52.012Z,99870.98
2018-01-24T07:21:28.752Z,99876.67
2018-01-24T07:23:06.931Z,99852.45
2018-01-24T07:24:43.870Z,99863.02
2018-01-24T07:26:20.862Z,99884.69
2018-01-24T07:27:57.878Z,99877.55
2018-01-24T07:29:35.015Z,99879.37
2018-01-24T07:31:12.709Z,99879.76
2018-01-24T07:32:49.705Z,99878.45
2018-01-24T07:34:26.671Z,99911.17
2018-01-24T07:36:03.603Z,99900.11
2018-01-24T07:37:40.516Z,99863.89
2018-01-24T07:39:17.551Z,99825.06
2018-01-24T07:40:55.411Z,99867.02
2018-01-24T07:42:32.305Z,99902.34
2018-01-24T07:44:09.950Z,99908.95
2018-01-24T07:45:48.052Z,99855.93
2018-01-24T07:47:25.109Z,99870.96
2018-01-24T07:49:02.186Z,99876.72
2018-01-24T07:50:40.726Z,99960.18
2018-01-24T07:52:17.829Z,100010.13
2018-01-24T07:53:56.015Z,99995.53
2018-01-24T07:55:33.155Z,99971.20
2018-01-24T07:57:11.439Z,99991.98
2018-01-24T07:58:49.275Z,99973.42
2018-01-24T08:00:26.375Z,99957.53
2018-01-24T08:02:02.801Z,99932.80
2018-01-24T08:03:40.229Z,99912.02
2018-01-24T08:05:17.228Z,99878.47
2018-01-24T08:06:53.766Z,99852.87
2018-01-24T08:08:30.597Z,99802.14
2018-01-24T08:10:08.899Z,99780.56
2018-01-24T08:11:46.904Z,99889.48
2018-01-24T08:13:24.733Z,99967.68
2018-01-24T08:15:02.414Z,100015.37
2018-01-24T08:16:39.927Z,99947.83
2018-01-24T08:18:17.224Z,100014.49
2018-01-24T08:19:54.148Z,100021.11
2018-01-24T08:21:33.098Z,100081.63
2018-01-24T08:23:11.674Z,100133.31
2018-01-24T08:24:50.079Z,100167.84
2018-01-24T08:26:26.858Z,100091.37
2018-01-24T08:28:03.311Z,100130.73
2018-01-24T08:29:40.759Z,100157.20
2018-01-24T08:31:17.715Z,100133.77
2018-01-24T08:32:57.551Z,100105.98
2018-01-24T08:34:34.590Z,100085.61
2018-01-24T08:36:12.100Z,100082.94
2018-01-24T08:37:49.640Z,100067.94
2018-01-24T08:39:26.741Z,100081.60
2018-01-24T08:41:03.798Z,100086.12
2018-01-24T08:42:41.276Z,100142.23
2018-01-24T08:44:18.311Z,100182.41
2018-01-24T08:45:55.217Z,100234.25
2018-01-24T08:47:33.160Z,100256.34
2018-01-24T08:49:10.908Z,100242.65
2018-01-24T08:50:48.311Z,100193.97
2018-01-24T08:52:24.878Z,100170.09
2018-01-24T08:54:01.577Z,100169.20
2018-01-24T08:55:38.739Z,100176.73
2018-01-24T08:57:22.595Z,100197.06
2018-01-24T08:58:59.591Z,100139.58
2018-01-24T09:00:36.598Z,100161.21
2018-01-24T09:02:13.601Z,100199.73
2018-01-24T09:03:51.596Z,100182.87
2018-01-24T09:05:29.361Z,100194.84
2018-01-24T09:07:05.898Z,100184.23
2018-01-24T09:08:42.904Z,100158.56
2018-01-24T09:10:20.332Z,100137.34
2018-01-24T09:11:58.155Z,100145.30
2018-01-24T09:13:35.156Z,100124.53
2018-01-24T09:15:13.060Z,100068.38
2018-01-24T09:16:49.427Z,100091.37
2018-01-24T09:18:26.379Z,100082.96
2018-01-24T09:20:03.485Z,100075.94
2018-01-24T09:21:41.084Z,100081.24
2018-01-24T09:23:19.111Z,100092.25
2018-01-24T09:24:56.399Z,100093.61
2018-01-24T09:26:33.236Z,100084.36
2018-01-24T09:28:11.560Z,100090.48
2018-01-24T09:29:48.660Z,100094.49
2018-01-24T09:31:26.332Z,100135.13
2018-01-24T09:33:03.434Z,100159.90
2018-01-24T09:36:07.404Z,100231.98
2018-01-24T09:37:44.728Z,100230.73
2018-01-24T09:39:23.214Z,100296.62
2018-01-24T09:41:00.328Z,100269.62
2018-01-24T09:42:38.207Z,100340.43
2018-01-24T09:44:16.245Z,100340.89
2018-01-24T09:45:53.936Z,100366.58
2018-01-24T09:47:31.278Z,100377.21
2018-01-24T09:49:07.775Z,100428.95
2018-01-24T09:50:45.311Z,100516.30
2018-01-24T09:52:21.880Z,100539.32
2018-01-24T09:54:01.051Z,100541.09
2018-01-24T09:55:38.040Z,100545.05
2018-01-24T09:57:14.971Z,100600.53
2018-01-24T09:58:52.051Z,100498.16
2018-01-24T10:00:29.723Z,100236.91
2018-01-24T10:02:07.354Z,100142.77
2018-01-24T10:03:44.602Z,100319.67
2018-01-24T10:05:21.867Z,100406.83
2018-01-24T10:07:04.037Z,100453.30
2018-01-24T10:08:41.719Z,100481.30
2018-01-24T10:10:18.865Z,100492.77
2018-01-24T10:12:00.136Z,100527.30
2018-01-24T10:13:37.723Z,100520.72
2018-01-24T10:15:16.479Z,100555.22
2018-01-24T10:16:55.306Z,100570.80
2018-01-24T10:18:32.684Z,100590.73
2018-01-24T10:20:09.685Z,100615.55
2018-01-24T10:21:46.840Z,100649.25
2018-01-24T10:23:24.030Z,100672.78
2018-01-24T10:25:02.754Z,100674.48
2018-01-24T10:26:40.771Z,100628.80
2018-01-24T10:28:17.816Z,100638.62
2018-01-24T10:29:57.535Z,100613.33
2018-01-24T10:31:35.832Z,100605.84
2018-01-24T10:33:13.761Z,100570.34
2018-01-24T10:34:52.900Z,100546.86
2018-01-24T10:36:30.121Z,100575.23
2018-01-24T10:38:07.720Z,100553.88
2018-01-24T10:39:46.757Z,100606.31
2018-01-24T10:41:26.674Z,100632.84
2018-01-24T10:43:04.370Z,100677.63
2018-01-24T10:44:48.148Z,100627.48
2018-01-24T10:46:27.327Z,100654.96
2018-01-24T10:48:04.883Z,100671.02
2018-01-24T10:49:42.473Z,100666.12
2018-01-24T10:51:20.338Z,100665.66
2018-01-24T10:53:00.911Z,100691.42
2018-01-24T10:54:47.738Z,100674.14
2018-01-24T10:58:01.477Z,100679.85
2018-01-24T10:59:38.278Z,100703.35
2018-01-24T11:01:18.219Z,100698.89
2018-01-24T11:02:57.055Z,100692.73
2018-01-24T11:04:35.276Z,100654.55
2018-01-24T11:06:14.836Z,100698.45
2018-01-24T11:07:54.882Z,100704.25
2018-01-24T11:09:32.579Z,100666.12
2018-01-24T11:11:09.966Z,100686.08
2018-01-24T11:12:52.466Z,100672.78
2018-01-24T11:14:30.939Z,100619.09
2018-01-24T11:16:09.792Z,100597.36
2018-01-24T11:17:48.564Z,100587.19
2018-01-24T11:19:25.613Z,100602.27
2018-01-24T11:21:09.801Z,100651.05
2018-01-24T11:22:49.059Z,100662.98
2018-01-24T11:24:26.690Z,100679.41
2018-01-24T11:26:05.611Z,100661.66
2018-01-24T11:27:43.264Z,100686.95
2018-01-24T11:29:20.954Z,100739.77
2018-01-24T11:31:02.851Z,100760.61
2018-01-24T11:32:40.957Z,100749.97
2018-01-24T11:34:19.333Z,100751.76
2018-01-24T11:35:57.731Z,100762.85
2018-01-24T11:37:35.113Z,100777.90
2018-01-24T11:39:14.442Z,100834.28
2018-01-24T11:40:52.008Z,100908.88
2018-01-24T11:42:37.413Z,100810.76
2018-01-24T11:45:47.508Z,100845.85
2018-01-24T11:47:25.376Z,100795.70
2018-01-24T11:49:04.793Z,100794.36
2018-01-24T11:50:44.867Z,100817.45
2018-01-24T11:52:23.058Z,100809.40
2018-01-24T11:54:01.557Z,100840.06
2018-01-24T11:55:41.122Z,100912.00
2018-01-24T11:57:27.608Z,100896.47
2018-01-24T11:59:06.662Z,100943.09
2018-01-24T12:00:44.424Z,100945.77
2018-01-24T12:02:25.796Z,100919.53
2018-01-24T12:04:04.174Z,100915.13
2018-01-24T12:05:42.431Z,100905.33
2018-01-24T12:07:20.726Z,100935.97
2018-01-24T12:08:59.343Z,100943.09
2018-01-24T12:10:37.503Z,100956.02
2018-01-24T12:12:15.588Z,100905.77
2018-01-24T12:13:54.064Z,100858.26
2018-01-24T12:15:33.564Z,100830.34
2018-01-24T12:17:11.519Z,100794.81
2018-01-24T12:18:50.186Z,100808.96
2018-01-24T12:20:31.353Z,100795.23
2018-01-24T12:22:09.580Z,100785.92
2018-01-24T12:23:49.854Z,100733.52
2018-01-24T12:25:28.651Z,100696.76
2018-01-24T12:27:08.462Z,100695.84
2018-01-24T12:28:49.033Z,100755.34
2018-01-24T12:30:28.090Z,100755.78
2018-01-24T12:32:06.581Z,100730.42
2018-01-24T12:33:52.365Z,100729.09
2018-01-24T12:35:31.713Z,100732.68
2018-01-24T12:37:10.171Z,100747.33
2018-01-24T12:38:49.235Z,100738.45
2018-01-24T12:40:28.010Z,100737.56
2018-01-24T12:42:07.402Z,100783.70
2018-01-24T12:43:47.096Z,100737.52
2018-01-24T12:45:25.841Z,100705.13
2018-01-24T12:47:04.094Z,100709.61
2018-01-24T12:48:42.378Z,100724.25
2018-01-24T12:50:23.453Z,100661.22
2018-01-24T12:52:02.442Z,100671.48
2018-01-24T12:53:41.298Z,100725.59
2018-01-24T12:55:20.475Z,100755.69
2018-01-24T12:56:58.043Z,100771.70
2018-01-24T12:58:36.610Z,100802.80
2018-01-24T13:00:16.032Z,100836.02
2018-01-24T13:01:56.110Z,100903.14
2018-01-24T13:03:34.362Z,100866.69
2018-01-24T13:05:13.931Z,100821.40
2018-01-24T13:06:55.056Z,100788.09
2018-01-24T13:08:36.146Z,100730.88
2018-01-24T13:10:15.805Z,100701.18
2018-01-24T13:11:54.738Z,100683.39
2018-01-24T13:13:33.789Z,100671.90
2018-01-24T13:15:15.180Z,100633.27
2018-01-24T13:16:56.099Z,100594.25
2018-01-24T13:18:36.510Z,100628.38
2018-01-24T13:20:15.687Z,100621.30
2018-01-24T13:21:54.740Z,100608.86
2018-01-24T13:23:33.700Z,100645.70
2018-01-24T13:25:12.144Z,100657.18
2018-01-24T13:26:52.528Z,100657.63
2018-01-24T13:28:30.727Z,100647.47
2018-01-24T13:30:09.535Z,100641.20
2018-01-24T13:31:52.211Z,100611.95
2018-01-24T13:33:32.097Z,100626.58
2018-01-24T13:35:10.078Z,100666.56
2018-01-24T13:36:47.741Z,100678.49
2018-01-24T13:38:26.072Z,100693.59
2018-01-24T13:40:03.857Z,100691.37
2018-01-24T13:41:42.842Z,100687.86
2018-01-24T13:43:20.966Z,100673.22
2018-01-24T13:45:03.398Z,100672.70
2018-01-24T13:46:44.549Z,100675.83
2018-01-24T13:48:25.588Z,100703.81
2018-01-24T13:50:05.898Z,100695.77
2018-01-24T13:51:43.627Z,100709.11
2018-01-24T13:53:26.631Z,100694.87
2018-01-24T13:55:05.191Z,100773.48
2018-01-24T13:56:43.914Z,100820.00
2018-01-24T13:58:24.252Z,100859.98
2018-01-24T14:00:07.786Z,100868.88
2018-01-24T14:01:47.161Z,100844.42
2018-01-24T14:03:26.712Z,100818.73
2018-01-24T14:05:07.598Z,100780.98
2018-01-24T14:06:47.989Z,100753.47
2018-01-24T14:21:59.606Z,100532.97
2018-01-24T14:23:37.366Z,100572.98
2018-01-24T14:25:37.394Z,100593.80
2018-01-24T14:27:16.011Z,100610.66
2018-01-24T14:28:55.820Z,100590.23
2018-01-24T14:30:33.034Z,100586.27
2018-01-24T14:32:12.486Z,100568.95
2018-01-24T14:33:55.852Z,100579.61
2018-01-24T14:35:32.352Z,100564.96
2018-01-24T14:37:12.357Z,100569.34
2018-01-24T14:38:51.381Z,100554.32
2018-01-24T14:40:30.562Z,100514.92
2018-01-24T14:42:09.425Z,100493.19
2018-01-24T14:43:47.912Z,100513.12
2018-01-24T14:45:27.264Z,100544.14
2018-01-24T14:47:09.159Z,100540.66
2018-01-24T14:48:46.166Z,100466.52
2018-01-24T14:50:25.579Z,100560.06
2018-01-24T14:52:02.456Z,100653.62
2018-01-24T14:53:42.823Z,100658.50
2018-01-24T14:55:20.724Z,100658.05
2018-01-24T14:56:59.985Z,100616.37
2018-01-24T14:58:39.784Z,100529.50
2018-01-24T15:00:18.411Z,100592.91
2018-01-24T15:01:55.480Z,100645.61
2018-01-24T15:03:32.720Z,100741.93
2018-01-24T15:05:10.255Z,100758.35
2018-01-24T15:06:51.229Z,100634.53
2018-01-24T15:08:29.842Z,100642.98
2018-01-24T15:10:08.268Z,100658.98
2018-01-24T15:11:46.189Z,100514.87
2018-01-24T15:13:29.655Z,100538.80
2018-01-24T15:15:14.017Z,100584.91
2018-01-24T15:16:53.287Z,100601.27
2018-01-24T15:18:31.107Z,100555.16
2018-01-24T15:20:11.158Z,100559.64
2018-01-24T15:21:49.170Z,100631.89
2018-01-24T15:23:29.351Z,100566.23
2018-01-24T15:25:08.641Z,100514.80
2018-01-24T15:26:50.041Z,100514.42
2018-01-24T15:28:32.756Z,100537.02
2018-01-24T15:30:15.774Z,100512.64
2018-01-24T15:31:56.971Z,100478.07
2018-01-24T15:33:41.470Z,100466.98
2018-01-24T15:35:24.462Z,100350.96
2018-01-24T15:37:06.852Z,100398.73
2018-01-24T15:38:48.292Z,100395.18
2018-01-24T15:40:31.755Z,100434.23
2018-01-24T15:42:11.630Z,100419.58
2018-01-24T15:43:50.205Z,100424.89
2018-01-24T15:45:30.466Z,100443.47
2018-01-24T15:47:10.540Z,100432.41
2018-01-24T15:48:52.039Z,100448.77
2018-01-24T15:50:32.508Z,100455.88
2018-01-24T15:52:09.897Z,100403.17
2018-01-24T15:53:49.996Z,100362.84
2018-01-24T15:55:30.833Z,100400.95
2018-01-24T15:57:09.400Z,100417.34
2018-01-24T15:58:48.672Z,100466.13
2018-01-24T16:00:28.278Z,100446.56
2018-01-24T16:02:06.786Z,100448.83
2018-01-24T16:03:48.398Z,100492.61
2018-01-24T16:05:30.486Z,100452.78
2018-01-24T16:07:11.473Z,100426.66
2018-01-24T16:08:51.307Z,100403.17
2018-01-24T16:10:52.608Z,100384.09
2018-01-24T16:12:31.552Z,100346.53
2018-01-24T16:14:12.465Z,100346.97
2018-01-24T16:15:53.269Z,100362.83
2018-01-24T16:17:33.551Z,100368.16
2018-01-24T16:19:14.617Z,100364.16
2018-01-24T16:20:57.044Z,100355.83
2018-01-24T16:22:40.808Z,100380.61
2018-01-24T16:24:22.516Z,100353.16
2018-01-24T16:26:03.134Z,100323.91
2018-01-24T16:27:44.257Z,100319.45
2018-01-24T16:29:23.752Z,100303.53
2018-01-24T16:31:03.952Z,100339.38
2018-01-24T16:32:42.459Z,100327.91
2018-01-24T16:34:21.629Z,100308.83
2018-01-24T16:36:02.071Z,100260.16
2018-01-24T16:37:42.084Z,100265.95
2018-01-24T16:39:20.782Z,100226.59
2018-01-24T16:41:03.006Z,100138.94
2018-01-24T16:42:43.819Z,100165.55
2018-01-24T16:44:26.903Z,100192.05
2018-01-24T16:46:09.184Z,100223.02
2018-01-24T16:47:51.488Z,100180.55
2018-01-24T16:49:33.174Z,100185.44
2018-01-24T16:51:13.668Z,100132.34
2018-01-24T16:52:55.040Z,100223.92
2018-01-24T16:54:36.066Z,100293.77
2018-01-24T16:56:16.790Z,100188.02
2018-01-24T16:57:56.296Z,100254.44
2018-01-24T16:59:38.344Z,100243.80
2018-01-24T17:01:22.651Z,100151.34
2018-01-24T17:03:04.688Z,100225.69
2018-01-24T17:04:43.656Z,100264.57
2018-01-24T17:06:23.818Z,100244.18
2018-01-24T17:08:09.887Z,100250.45
2018-01-24T17:09:52.998Z,100247.34
2018-01-24T17:11:35.342Z,100152.20
2018-01-24T17:13:17.107Z,100239.79
2018-01-24T17:14:56.697Z,100292.91
2018-01-24T17:16:42.097Z,100336.27
2018-01-24T17:18:24.597Z,100334.94
2018-01-24T17:20:08.508Z,100349.08
2018-01-24T17:21:49.294Z,100344.64
2018-01-24T17:23:28.085Z,100353.50
2018-01-24T17:25:08.546Z,100301.23
2018-01-24T17:26:49.291Z,100292.87
2018-01-24T17:28:35.079Z,100261.48
2018-01-24T17:30:17.466Z,100279.55
2018-01-24T17:31:58.844Z,100267.20
2018-01-24T17:33:40.752Z,100189.76
2018-01-24T17:35:22.380Z,100207.48
2018-01-24T17:37:05.416Z,100172.54
2018-01-24T17:38:47.299Z,100210.13
2018-01-24T17:43:11.013Z,100266.30
2018-01-24T17:44:54.600Z,100310.52
2018-01-24T17:46:39.288Z,100296.84
2018-01-24T17:48:24.069Z,100260.52
2018-01-24T17:50:04.953Z,100203.48
2018-01-24T17:51:49.551Z,100176.89
2018-01-24T17:53:33.478Z,100151.69
2018-01-24T17:55:15.902Z,100130.43
2018-01-24T17:57:01.819Z,100140.20
2018-01-24T17:58:44.632Z,100129.98
2018-01-24T18:00:28.557Z,100179.52
2018-01-24T18:02:13.790Z,100208.77
2018-01-24T18:03:56.737Z,100250.79
2018-01-24T18:05:41.312Z,100236.15
2018-01-24T18:07:23.451Z,100241.06
2018-01-24T18:09:06.247Z,100250.39
2018-01-24T18:10:48.370Z,100285.72
2018-01-24T18:12:31.778Z,100210.05
2018-01-24T18:14:18.974Z,100230.88
2018-01-24T18:16:08.864Z,100244.59
2018-01-24T18:17:52.714Z,100269.32
2018-01-24T18:19:34.084Z,100326.01
2018-01-24T18:21:16.185Z,100339.28
2018-01-24T18:22:58.480Z,100346.32
2018-01-24T18:24:42.751Z,100326.38
2018-01-24T18:26:26.053Z,100337.48
2018-01-24T18:28:08.722Z,100375.58
2018-01-24T18:29:54.557Z,100387.08
2018-01-24T18:31:39.662Z,100399.89
2018-01-24T18:33:50.559Z,100438.38
2018-01-24T18:35:35.633Z,100433.11
2018-01-24T18:37:19.215Z,100412.77
2018-01-24T18:39:04.556Z,100426.91
2018-01-24T18:40:51.946Z,100445.50
2018-01-24T18:42:39.175Z,100400.80
2018-01-24T18:44:23.243Z,100183.06
2018-01-24T18:46:12.790Z,100245.88
2018-01-24T18:47:57.657Z,100295.86
2018-01-24T18:49:43.030Z,100296.70
2018-01-24T18:51:31.148Z,100309.58
2018-01-24T18:53:14.401Z,100276.39
2018-01-24T18:54:58.832Z,100241.38
2018-01-24T18:56:41.408Z,100246.27
2018-01-24T18:58:28.962Z,100281.27
2018-01-24T19:00:13.811Z,100242.72
2018-01-24T19:02:01.282Z,100205.16
2018-01-24T19:03:53.008Z,100171.05
2018-01-24T19:05:42.602Z,100164.45
2018-01-24T19:07:31.095Z,100120.62
2018-01-24T19:09:15.520Z,100095.91
2018-01-24T19:10:59.581Z,100104.26
2018-01-24T19:12:43.994Z,100129.05
2018-01-24T19:14:29.031Z,100189.64
2018-01-24T19:16:11.711Z,100220.59
2018-01-24T19:17:59.242Z,100224.98
2018-01-24T19:19:42.060Z,100272.35
2018-01-24T19:21:23.928Z,100286.94
2018-01-24T19:23:03.401Z,100246.69
2018-01-24T19:24:46.918Z,100229.44